createdAt,value
2018-09-16T03:21:09.506Z,10.20
2018-09-16T03:23:11.617Z,10.20
2018-09-16T03:25:13.724Z,10.30
2018-09-16T03:27:15.800Z,10.30
2018-09-16T03:29:18.017Z,10.20
2018-09-16T03:31:20.072Z,10.20
2018-09-16T03:33:22.128Z,10.20
2018-09-16T03:35:24.222Z,10.20
2018-09-16T03:37:26.297Z,10.20
2018-09-16T03:39:28.344Z,10.10
2018-09-16T03:41:30.411Z,10.10
2018-09-16T03:43:32.475Z,10.10
2018-09-16T03:45:34.540Z,10.10
2018-09-16T03:47:36.967Z,10.10
2018-09-16T03:49:39.021Z,10.10
2018-09-16T03:51:41.065Z,10.10
2018-09-16T03:53:43.198Z,10.10
2018-09-16T03:55:45.265Z,10.10
2018-09-16T03:57:47.322Z,10.00
2018-09-16T03:59:49.483Z,10.00
2018-09-16T04:01:51.590Z,10.00
2018-09-16T04:03:53.744Z,10.00
2018-09-16T04:05:55.845Z,10.00
2018-09-16T04:07:57.937Z,10.00
2018-09-16T04:10:00.020Z,10.00
2018-09-16T04:12:02.121Z,10.00
2018-09-16T04:14:04.669Z,10.00
2018-09-16T04:16:06.701Z,10.00
2018-09-16T04:18:08.811Z,10.10
2018-09-16T04:20:10.925Z,10.10
2018-09-16T04:22:12.986Z,10.10
2018-09-16T04:24:15.048Z,10.00
2018-09-16T04:26:17.676Z,10.00
2018-09-16T04:28:19.858Z,10.00
2018-09-16T04:30:21.987Z,10.00
2018-09-16T04:32:24.176Z,10.10
2018-09-16T04:34:26.291Z,10.00
2018-09-16T04:36:28.487Z,10.00
2018-09-16T04:38:30.661Z,10.00
2018-09-16T04:40:32.827Z,10.00
2018-09-16T04:42:34.947Z,10.00
2018-09-16T04:44:37.127Z,10.00
2018-09-16T04:46:39.334Z,10.00
2018-09-16T04:48:41.532Z,10.00
2018-09-16T04:50:43.764Z,10.00
2018-09-16T04:52:45.952Z,10.00
2018-09-16T04:54:48.051Z,9.90
2018-09-16T04:56:50.243Z,10.00
2018-09-16T04:58:52.429Z,9.90
2018-09-16T05:00:54.580Z,10.00
2018-09-16T05:02:56.653Z,9.90
2018-09-16T05:04:58.811Z,9.90
2018-09-16T05:07:00.967Z,9.90
2018-09-16T05:09:04.691Z,10.00
2018-09-16T05:11:06.850Z,10.00
2018-09-16T05:13:09.017Z,10.00
2018-09-16T05:15:11.171Z,10.10
2018-09-16T05:17:13.415Z,10.10
2018-09-16T05:19:15.549Z,10.10
2018-09-16T05:21:17.689Z,10.20
2018-09-16T05:23:19.874Z,10.20
2018-09-16T05:25:22.037Z,10.20
2018-09-16T05:27:24.108Z,10.20
2018-09-16T05:29:26.266Z,10.30
2018-09-16T05:31:28.434Z,10.40
2018-09-16T05:33:30.492Z,10.40
2018-09-16T05:35:32.609Z,10.50
2018-09-16T05:37:34.722Z,10.60
2018-09-16T05:39:36.786Z,10.70
2018-09-16T05:41:38.968Z,10.80
2018-09-16T05:43:41.041Z,10.90
2018-09-16T05:45:43.172Z,11.00
2018-09-16T05:47:45.231Z,11.00
2018-09-16T05:49:47.477Z,11.10
2018-09-16T05:51:49.537Z,11.10
2018-09-16T05:53:51.683Z,11.20
2018-09-16T05:55:53.754Z,11.30
2018-09-16T05:57:55.863Z,11.40
2018-09-16T05:59:57.930Z,11.50
2018-09-16T06:02:00.006Z,11.60
2018-09-16T06:04:02.113Z,11.70
2018-09-16T06:06:04.481Z,11.80
2018-09-16T06:08:06.541Z,11.90
2018-09-16T06:10:08.636Z,12.00
2018-09-16T06:12:10.712Z,12.10
2018-09-16T06:14:12.814Z,12.30
2018-09-16T06:16:14.904Z,12.40
2018-09-16T06:18:17.048Z,12.50
2018-09-16T06:20:19.155Z,12.60
2018-09-16T06:22:21.314Z,12.70
2018-09-16T06:24:23.376Z,12.80
2018-09-16T06:26:25.421Z,12.90
2018-09-16T06:28:27.497Z,13.00
2018-09-16T06:30:29.571Z,13.00
2018-09-16T06:32:31.671Z,13.10
2018-09-16T06:34:33.812Z,13.20
2018-09-16T06:36:35.890Z,13.20
2018-09-16T06:38:37.979Z,13.20
2018-09-16T06:40:40.153Z,13.30
2018-09-16T06:42:42.289Z,13.40
2018-09-16T06:44:44.372Z,13.50
2018-09-16T06:46:46.471Z,13.70
2018-09-16T06:48:48.728Z,13.80
2018-09-16T06:50:50.827Z,14.10
2018-09-16T06:52:52.991Z,14.30
2018-09-16T06:54:55.056Z,14.50
2018-09-16T06:56:57.223Z,14.70
2018-09-16T06:58:59.357Z,14.90
2018-09-16T07:01:01.424Z,15.10
2018-09-16T07:03:03.549Z,15.00
2018-09-16T07:05:05.699Z,15.40
2018-09-16T07:07:07.812Z,15.60
2018-09-16T07:09:11.748Z,15.50
2018-09-16T07:11:13.883Z,15.90
2018-09-16T07:13:16.090Z,16.00
2018-09-16T07:15:18.272Z,16.10
2018-09-16T07:17:20.467Z,16.10
2018-09-16T07:19:22.576Z,16.40
2018-09-16T07:21:24.728Z,16.40
2018-09-16T07:23:26.876Z,16.60
2018-09-16T07:25:29.028Z,16.80
2018-09-16T07:27:31.210Z,16.90
2018-09-16T07:29:33.293Z,16.80
2018-09-16T07:31:35.486Z,16.80
2018-09-16T07:33:37.677Z,16.60
2018-09-16T07:35:39.910Z,16.80
2018-09-16T07:37:42.077Z,17.30
2018-09-16T07:39:57.497Z,17.40
2018-09-16T07:41:59.584Z,17.00
2018-09-16T07:44:01.657Z,17.70
2018-09-16T07:46:03.949Z,17.50
2018-09-16T07:48:06.011Z,18.00
2018-09-16T07:50:20.258Z,18.40
2018-09-16T07:52:22.368Z,18.50
2018-09-16T07:54:24.425Z,18.70
2018-09-16T07:56:26.504Z,19.10
2018-09-16T07:58:28.630Z,19.20
2018-09-16T08:00:30.815Z,19.30
2018-09-16T08:02:32.887Z,19.80
2018-09-16T08:04:35.099Z,19.90
2018-09-16T08:06:37.161Z,19.60
2018-09-16T08:08:39.245Z,19.70
2018-09-16T08:10:41.336Z,19.70
2018-09-16T08:12:43.456Z,19.60
2018-09-16T08:14:45.575Z,20.00
2018-09-16T08:16:47.648Z,20.20
2018-09-16T08:18:49.789Z,20.40
2018-09-16T08:20:51.898Z,20.50
2018-09-16T08:22:53.970Z,20.30
2018-09-16T08:24:56.074Z,20.20
2018-09-16T08:26:58.172Z,20.20
2018-09-16T08:29:00.264Z,20.70
2018-09-16T08:31:02.333Z,20.80
2018-09-16T08:33:04.598Z,20.50
2018-09-16T08:35:06.695Z,21.00
2018-09-16T08:37:08.756Z,21.10
2018-09-16T08:39:11.621Z,21.40
2018-09-16T08:41:13.934Z,21.60
2018-09-16T08:43:15.988Z,21.40
2018-09-16T08:45:18.089Z,21.70
2018-09-16T08:47:20.280Z,21.50
2018-09-16T08:49:43.361Z,21.90
2018-09-16T08:51:49.199Z,21.90
2018-09-16T08:53:51.287Z,22.00
2018-09-16T08:55:53.399Z,22.20
2018-09-16T08:57:55.680Z,22.10
2018-09-16T08:59:57.769Z,22.20
2018-09-16T09:01:59.909Z,21.80
2018-09-16T09:04:02.112Z,22.30
2018-09-16T09:06:04.413Z,22.40
2018-09-16T09:08:06.624Z,22.80
2018-09-16T09:10:10.253Z,22.60
2018-09-16T09:12:12.452Z,23.20
2018-09-16T09:14:14.636Z,23.50
2018-09-16T09:16:16.830Z,23.80
2018-09-16T09:18:19.031Z,23.90
2018-09-16T09:20:21.176Z,23.80
2018-09-16T09:22:23.325Z,23.40
2018-09-16T09:24:25.802Z,23.20
2018-09-16T09:26:28.612Z,23.80
2018-09-16T09:28:42.758Z,23.60
2018-09-16T09:30:47.731Z,23.50
2018-09-16T09:32:55.287Z,23.80
2018-09-16T09:34:58.928Z,23.90
2018-09-16T09:37:01.400Z,23.30
2018-09-16T09:39:08.282Z,23.40
2018-09-16T09:43:22.656Z,23.50
2018-09-16T09:45:33.187Z,23.20
2018-09-16T09:47:41.059Z,23.40
2018-09-16T09:49:44.361Z,23.50
2018-09-16T09:51:48.037Z,23.60
2018-09-16T09:53:56.254Z,23.50
2018-09-16T09:55:58.681Z,23.50
2018-09-16T09:58:00.833Z,23.80
2018-09-16T10:00:03.156Z,23.90
2018-09-16T10:02:07.267Z,24.50
2018-09-16T10:04:09.511Z,24.80
2018-09-16T10:06:12.292Z,25.20
2018-09-16T10:08:24.889Z,25.50
2018-09-16T10:10:27.681Z,24.90
2018-09-16T10:12:30.108Z,24.60
2018-09-16T10:14:46.071Z,24.40
2018-09-16T10:16:48.758Z,24.20
2018-09-16T10:18:51.269Z,24.10
2018-09-16T10:20:53.785Z,23.80
2018-09-16T10:22:55.852Z,23.80
2018-09-16T10:24:57.934Z,24.00
2018-09-16T10:27:05.241Z,23.80
2018-09-16T10:29:12.471Z,25.00
2018-09-16T10:31:15.847Z,24.80
2018-09-16T10:33:25.904Z,25.70
2018-09-16T10:35:28.006Z,25.70
2018-09-16T10:37:30.067Z,25.20
2018-09-16T10:39:32.158Z,25.70
2018-09-16T10:41:34.276Z,25.80
2018-09-16T10:43:36.753Z,24.40
2018-09-16T10:45:38.841Z,25.30
2018-09-16T10:47:40.933Z,26.40
2018-09-16T10:49:43.004Z,26.00
2018-09-16T10:51:45.069Z,27.20
2018-09-16T10:53:47.133Z,26.70
2018-09-16T10:55:49.197Z,26.60
2018-09-16T10:57:51.244Z,26.20
2018-09-16T10:59:53.336Z,26.70
2018-09-16T11:01:55.397Z,26.20
2018-09-16T11:03:57.441Z,26.30
2018-09-16T11:05:59.740Z,26.20
2018-09-16T11:08:02.005Z,26.20
2018-09-16T11:10:03.921Z,25.90
2018-09-16T11:12:06.071Z,26.00
2018-09-16T11:14:08.148Z,25.50
2018-09-16T11:16:10.253Z,26.50
2018-09-16T11:18:12.334Z,26.80
2018-09-16T11:20:14.397Z,26.90
2018-09-16T11:22:16.548Z,26.60
2018-09-16T11:24:18.607Z,27.20
2018-09-16T11:26:20.650Z,27.50
2018-09-16T11:28:22.728Z,27.60
2018-09-16T11:30:24.757Z,28.20
2018-09-16T11:32:26.786Z,28.60
2018-09-16T11:34:28.996Z,28.40
2018-09-16T11:36:31.063Z,27.70
2018-09-16T11:38:33.125Z,28.10
2018-09-16T11:40:35.254Z,27.80
2018-09-16T11:42:37.334Z,27.30
2018-09-16T11:44:39.392Z,26.90
2018-09-16T11:46:41.434Z,26.90
2018-09-16T11:48:43.498Z,26.40
2018-09-16T11:50:45.574Z,26.30
2018-09-16T11:52:47.640Z,26.90
2018-09-16T11:54:49.761Z,27.40
2018-09-16T11:56:51.894Z,27.80
2018-09-16T11:58:54.046Z,28.40
2018-09-16T12:00:56.179Z,27.80
2018-09-16T12:02:58.347Z,27.10
2018-09-16T12:05:00.440Z,28.00
2018-09-16T12:07:02.569Z,28.20
2018-09-16T12:09:06.031Z,28.00
2018-09-16T12:11:08.147Z,27.50
2018-09-16T12:13:10.279Z,28.10
2018-09-16T12:15:12.338Z,27.90
2018-09-16T12:17:14.420Z,28.00
2018-09-16T12:19:16.478Z,28.10
2018-09-16T12:21:18.558Z,28.50
2018-09-16T12:23:20.634Z,28.70
2018-09-16T12:25:22.718Z,29.10
2018-09-16T12:27:24.798Z,28.80
2018-09-16T12:29:26.892Z,29.00
2018-09-16T12:31:28.980Z,28.10
2018-09-16T12:33:31.135Z,28.90
2018-09-16T12:35:33.291Z,28.80
2018-09-16T12:37:35.448Z,28.90
2018-09-16T12:39:37.560Z,28.90
2018-09-16T12:41:39.653Z,28.90
2018-09-16T12:43:41.736Z,29.10
2018-09-16T12:45:43.806Z,29.70
2018-09-16T12:47:45.902Z,29.60
2018-09-16T12:49:47.987Z,29.20
2018-09-16T12:51:50.074Z,28.20
2018-09-16T12:53:52.142Z,27.80
2018-09-16T12:55:54.261Z,27.10
2018-09-16T12:57:56.381Z,26.70
2018-09-16T12:59:58.523Z,26.40
2018-09-16T13:02:00.646Z,26.10
2018-09-16T13:04:02.738Z,25.90
2018-09-16T13:06:04.812Z,25.50
2018-09-16T13:08:06.918Z,25.80
2018-09-16T13:10:09.029Z,25.80
2018-09-16T13:12:11.130Z,26.50
2018-09-16T13:14:13.213Z,27.00
2018-09-16T13:16:15.349Z,27.40
2018-09-16T13:18:17.454Z,27.50
2018-09-16T13:20:19.892Z,27.40
2018-09-16T13:22:22.012Z,27.20
2018-09-16T13:24:24.151Z,27.10
2018-09-16T13:26:26.342Z,26.60
2018-09-16T13:28:28.466Z,26.90
2018-09-16T13:30:30.583Z,27.20
2018-09-16T13:32:32.706Z,26.50
2018-09-16T13:34:34.814Z,26.90
2018-09-16T13:36:36.914Z,27.20
2018-09-16T13:38:39.112Z,27.70
2018-09-16T13:40:41.224Z,28.00
2018-09-16T13:42:43.340Z,27.80
2018-09-16T13:44:45.456Z,27.20
2018-09-16T13:46:47.546Z,27.00
2018-09-16T13:48:49.631Z,26.60
2018-09-16T13:50:51.737Z,26.80
2018-09-16T13:52:53.885Z,26.40
2018-09-16T13:54:56.146Z,26.20
2018-09-16T13:56:58.252Z,26.00
2018-09-16T13:59:00.401Z,26.10
2018-09-16T14:01:02.521Z,26.60
2018-09-16T14:03:04.832Z,26.50
2018-09-16T14:05:07.039Z,26.20
2018-09-16T14:07:09.459Z,26.40
2018-09-16T14:09:12.571Z,26.60
2018-09-16T14:11:14.697Z,26.60
2018-09-16T14:13:17.615Z,26.70
2018-09-16T14:15:19.721Z,26.80
2018-09-16T14:17:21.861Z,26.90
2018-09-16T14:19:24.017Z,27.10
2018-09-16T14:21:26.197Z,27.20
2018-09-16T14:23:28.299Z,27.30
2018-09-16T14:25:30.413Z,27.50
2018-09-16T14:27:32.609Z,27.60
2018-09-16T14:29:34.713Z,27.70
2018-09-16T14:31:36.835Z,27.80
2018-09-16T14:33:38.959Z,27.60
2018-09-16T14:35:41.134Z,27.30
2018-09-16T14:37:43.241Z,26.60
2018-09-16T14:39:45.338Z,26.10
2018-09-16T14:41:47.454Z,25.80
2018-09-16T14:43:49.569Z,25.00
2018-09-16T14:45:51.674Z,25.30
2018-09-16T14:47:53.793Z,25.00
2018-09-16T14:49:55.993Z,25.00
2018-09-16T14:51:58.192Z,24.70
2018-09-16T14:54:00.457Z,24.80
2018-09-16T14:56:02.677Z,24.80
2018-09-16T14:58:05.013Z,24.80
2018-09-16T15:00:07.279Z,24.50
2018-09-16T15:02:09.661Z,24.40
2018-09-16T15:04:11.999Z,24.30
2018-09-16T15:06:14.168Z,24.20
2018-09-16T15:08:16.977Z,24.10
2018-09-16T15:10:19.186Z,24.20
2018-09-16T15:12:21.258Z,24.20
2018-09-16T15:14:23.418Z,24.10
2018-09-16T15:16:25.562Z,24.10
2018-09-16T15:18:27.757Z,24.00
2018-09-16T15:20:29.910Z,23.80
2018-09-16T15:22:32.017Z,23.70
2018-09-16T15:24:34.239Z,23.70
2018-09-16T15:26:36.421Z,23.60
2018-09-16T15:28:38.701Z,23.70
2018-09-16T15:30:40.838Z,23.60
2018-09-16T15:32:43.023Z,23.50
2018-09-16T15:34:45.156Z,23.40
2018-09-16T15:36:47.297Z,23.40
2018-09-16T15:38:49.424Z,23.50
2018-09-16T15:40:51.648Z,23.40
2018-09-16T15:42:53.773Z,23.40
2018-09-16T15:44:56.069Z,23.40
2018-09-16T15:46:58.161Z,23.40
2018-09-16T15:49:00.246Z,23.30
2018-09-16T15:51:02.336Z,23.20
2018-09-16T15:53:04.447Z,23.20
2018-09-16T15:55:06.701Z,23.20
2018-09-16T15:57:08.771Z,23.30
2018-09-16T15:59:10.940Z,23.30
2018-09-16T16:01:13.220Z,23.30
2018-09-16T16:03:15.331Z,23.30
2018-09-16T16:05:17.438Z,23.40
2018-09-16T16:07:19.563Z,23.40
2018-09-16T16:09:27.119Z,23.40
2018-09-16T16:11:29.316Z,23.30
2018-09-16T16:13:32.602Z,23.30
2018-09-16T16:15:34.805Z,23.40
2018-09-16T16:17:36.995Z,23.20
2018-09-16T16:19:39.181Z,23.10
2018-09-16T16:21:41.369Z,23.10
2018-09-16T16:23:43.515Z,23.10
2018-09-16T16:25:45.603Z,22.90
2018-09-16T16:27:48.940Z,22.80
2018-09-16T16:29:51.038Z,22.80
2018-09-16T16:31:59.148Z,22.70
2018-09-16T16:34:01.393Z,22.60
2018-09-16T16:36:03.647Z,22.40
2018-09-16T16:38:26.122Z,22.40
2018-09-16T16:40:29.217Z,22.20
2018-09-16T16:42:31.361Z,22.10
2018-09-16T16:44:33.511Z,22.00
2018-09-16T16:46:35.907Z,21.90
2018-09-16T16:48:38.117Z,21.80
2018-09-16T16:50:40.279Z,21.70
2018-09-16T16:52:42.671Z,21.70
2018-09-16T16:54:44.927Z,21.60
2018-09-16T16:56:47.242Z,21.60
2018-09-16T16:58:49.447Z,21.50
2018-09-16T17:00:51.715Z,21.40
2018-09-16T17:02:53.951Z,21.10
2018-09-16T17:04:56.253Z,21.10
2018-09-16T17:06:58.417Z,21.00
2018-09-16T17:09:00.554Z,21.00
2018-09-16T17:11:02.794Z,21.00
2018-09-16T17:13:04.981Z,21.00
2018-09-16T17:15:07.285Z,21.00
2018-09-16T17:17:09.594Z,20.90
2018-09-16T17:19:11.732Z,20.90
2018-09-16T17:21:13.884Z,20.90
2018-09-16T17:23:16.011Z,20.80
2018-09-16T17:25:18.212Z,20.80
2018-09-16T17:27:21.561Z,20.70
2018-09-16T17:29:23.789Z,20.50
2018-09-16T17:31:25.925Z,20.40
2018-09-16T17:33:28.054Z,20.40
2018-09-16T17:35:30.212Z,20.40
2018-09-16T17:37:32.341Z,20.40
2018-09-16T17:39:34.536Z,20.30
2018-09-16T17:41:36.656Z,20.30
2018-09-16T17:43:38.795Z,20.30
2018-09-16T17:45:40.938Z,20.30
2018-09-16T17:47:43.045Z,20.20
2018-09-16T17:49:45.226Z,20.10
2018-09-16T17:51:47.373Z,20.10
2018-09-16T17:53:49.626Z,20.10
2018-09-16T17:55:51.765Z,20.00
2018-09-16T17:57:53.909Z,20.00
2018-09-16T17:59:56.232Z,19.90
2018-09-16T18:01:58.359Z,19.90
2018-09-16T18:04:00.451Z,19.80
2018-09-16T18:06:02.589Z,19.80
2018-09-16T18:08:04.744Z,19.70
2018-09-16T18:10:06.845Z,19.70
2018-09-16T18:12:08.955Z,19.60
2018-09-16T18:14:11.072Z,19.60
2018-09-16T18:16:13.165Z,19.50
2018-09-16T18:18:15.263Z,19.50
2018-09-16T18:20:17.423Z,19.40
2018-09-16T18:22:19.573Z,19.40
2018-09-16T18:24:21.678Z,19.40
2018-09-16T18:26:23.859Z,19.30
2018-09-16T18:28:25.974Z,19.30
2018-09-16T18:30:28.085Z,19.20
2018-09-16T18:32:30.197Z,19.20
2018-09-16T18:34:32.353Z,19.20
2018-09-16T18:36:34.471Z,19.20
2018-09-16T18:38:36.622Z,19.20
2018-09-16T18:40:38.747Z,19.20
2018-09-16T18:42:40.847Z,19.20
2018-09-16T18:44:42.973Z,19.30
2018-09-16T18:46:45.139Z,19.30
2018-09-16T18:48:47.317Z,19.30
2018-09-16T18:50:49.574Z,19.20
2018-09-16T18:52:51.769Z,19.20
2018-09-16T18:54:53.849Z,19.20
2018-09-16T18:56:56.019Z,19.20
2018-09-16T18:58:58.161Z,19.20
2018-09-16T19:01:00.645Z,19.20
2018-09-16T19:03:02.782Z,19.20
2018-09-16T19:05:04.892Z,19.10
2018-09-16T19:07:07.050Z,19.00
2018-09-16T19:09:09.724Z,18.90
2018-09-16T19:11:11.870Z,18.80
2018-09-16T19:13:14.011Z,18.70
2018-09-16T19:15:16.301Z,18.60
2018-09-16T19:17:18.427Z,18.60
2018-09-16T19:19:20.595Z,18.60
2018-09-16T19:21:22.758Z,18.60
2018-09-16T19:23:24.980Z,18.60
